sensor_id;sensor_type;location;lat;lon;timestamp;P1;durP1;ratioP1;P2;durP2;ratioP2
15383;SDS011;7790;53.022;12.968;2023-04-01T00:02:19;1.23;;;1.17;;
15383;SDS011;7790;53.022;12.968;2023-04-01T00:06:20;1.20;;;1.10;;
15383;SDS011;7790;53.022;12.968;2023-04-01T00:10:21;1.17;;;1.17;;
15383;SDS011;7790;53.022;12.968;2023-04-01T00:14:21;1.13;;;1.13;;
15383;SDS011;7790;53.022;12.968;2023-04-01T00:18:25;1.30;;;1.20;;
15383;SDS011;7790;53.022;12.968;2023-04-01T00:22:26;1.23;;;1.13;;
15383;SDS011;7790;53.022;12.968;2023-04-01T00:26:27;1.47;;;1.37;;
15383;SDS011;7790;53.022;12.968;2023-04-01T00:30:28;2.67;;;1.40;;
15383;SDS011;7790;53.022;12.968;2023-04-01T00:34:29;1.03;;;1.00;;
15383;SDS011;7790;53.022;12.968;2023-04-01T00:38:30;1.57;;;1.10;;
15383;SDS011;7790;53.022;12.968;2023-04-01T00:42:31;1.53;;;1.03;;
15383;SDS011;7790;53.022;12.968;2023-04-01T00:46:32;1.00;;;1.00;;
15383;SDS011;7790;53.022;12.968;2023-04-01T00:50:33;2.00;;;0.90;;
15383;SDS011;7790;53.022;12.968;2023-04-01T00:54:35;1.07;;;1.00;;
15383;SDS011;7790;53.022;12.968;2023-04-01T00:58:38;1.10;;;1.10;;
15383;SDS011;7790;53.022;12.968;2023-04-01T01:02:43;1.33;;;1.23;;
15383;SDS011;7790;53.022;12.968;2023-04-01T01:06:55;1.07;;;1.03;;
15383;SDS011;7790;53.022;12.968;2023-04-01T01:11:03;1.00;;;1.00;;
15383;SDS011;7790;53.022;12.968;2023-04-01T01:15:16;1.40;;;1.30;;
15383;SDS011;7790;53.022;12.968;2023-04-01T01:20:19;1.00;;;1.00;;
15383;SDS011;7790;53.022;12.968;2023-04-01T01:37:04;1.10;;;1.07;;
15383;SDS011;7790;53.022;12.968;2023-04-01T01:41:11;0.83;;;0.83;;
15383;SDS011;7790;53.022;12.968;2023-04-01T01:45:16;1.10;;;1.10;;
15383;SDS011;7790;53.022;12.968;2023-04-01T01:49:20;0.90;;;0.90;;
15383;SDS011;7790;53.022;12.968;2023-04-01T01:53:22;1.00;;;1.00;;
15383;SDS011;7790;53.022;12.968;2023-04-01T01:57:29;1.10;;;1.10;;
15383;SDS011;7790;53.022;12.968;2023-04-01T02:01:39;0.80;;;0.80;;
15383;SDS011;7790;53.022;12.968;2023-04-01T02:05:47;1.13;;;1.13;;
15383;SDS011;7790;53.022;12.968;2023-04-01T02:09:51;1.00;;;0.90;;
15383;SDS011;7790;53.022;12.968;2023-04-01T02:13:54;1.47;;;1.20;;
15383;SDS011;7790;53.022;12.968;2023-04-01T02:18:02;0.90;;;0.90;;
15383;SDS011;7790;53.022;12.968;2023-04-01T02:22:05;0.90;;;0.90;;
15383;SDS011;7790;53.022;12.968;2023-04-01T02:26:11;1.10;;;1.00;;
15383;SDS011;7790;53.022;12.968;2023-04-01T02:30:14;1.53;;;1.00;;
15383;SDS011;7790;53.022;12.968;2023-04-01T02:34:16;0.90;;;0.90;;
15383;SDS011;7790;53.022;12.968;2023-04-01T02:38:17;1.27;;;1.17;;
15383;SDS011;7790;53.022;12.968;2023-04-01T02:42:18;1.00;;;1.00;;
15383;SDS011;7790;53.022;12.968;2023-04-01T02:46:19;1.07;;;1.00;;
15383;SDS011;7790;53.022;12.968;2023-04-01T02:50:20;0.80;;;0.80;;
15383;SDS011;7790;53.022;12.968;2023-04-01T02:54:21;1.57;;;1.30;;
15383;SDS011;7790;53.022;12.968;2023-04-01T02:58:22;0.97;;;0.97;;
15383;SDS011;7790;53.022;12.968;2023-04-01T03:02:25;0.90;;;0.90;;
15383;SDS011;7790;53.022;12.968;2023-04-01T03:06:26;1.27;;;1.17;;
15383;SDS011;7790;53.022;12.968;2023-04-01T03:10:27;0.90;;;0.90;;
15383;SDS011;7790;53.022;12.968;2023-04-01T03:14:28;1.20;;;1.10;;
15383;SDS011;7790;53.022;12.968;2023-04-01T03:18:30;1.23;;;1.10;;
15383;SDS011;7790;53.022;12.968;2023-04-01T03:22:33;1.00;;;1.00;;
15383;SDS011;7790;53.022;12.968;2023-04-01T03:26:34;1.10;;;1.00;;
15383;SDS011;7790;53.022;12.968;2023-04-01T03:30:35;1.10;;;1.10;;
15383;SDS011;7790;53.022;12.968;2023-04-01T03:34:36;0.80;;;0.80;;
15383;SDS011;7790;53.022;12.968;2023-04-01T03:38:37;1.40;;;1.30;;
15383;SDS011;7790;53.022;12.968;2023-04-01T03:42:39;1.20;;;1.10;;
15383;SDS011;7790;53.022;12.968;2023-04-01T03:46:40;1.00;;;1.00;;
15383;SDS011;7790;53.022;12.968;2023-04-01T03:50:41;0.83;;;0.83;;
15383;SDS011;7790;53.022;12.968;2023-04-01T03:54:42;2.30;;;0.97;;
15383;SDS011;7790;53.022;12.968;2023-04-01T03:58:43;2.37;;;1.17;;
15383;SDS011;7790;53.022;12.968;2023-04-01T04:02:45;0.87;;;0.83;;
15383;SDS011;7790;53.022;12.968;2023-04-01T04:06:53;0.87;;;0.87;;
15383;SDS011;7790;53.022;12.968;2023-04-01T04:10:55;0.93;;;0.90;;
15383;SDS011;7790;53.022;12.968;2023-04-01T04:14:56;0.90;;;0.90;;
15383;SDS011;7790;53.022;12.968;2023-04-01T04:18:57;1.53;;;0.93;;
15383;SDS011;7790;53.022;12.968;2023-04-01T04:23:00;1.00;;;1.00;;
15383;SDS011;7790;53.022;12.968;2023-04-01T04:27:01;0.90;;;0.90;;
15383;SDS011;7790;53.022;12.968;2023-04-01T04:31:02;0.70;;;0.70;;
15383;SDS011;7790;53.022;12.968;2023-04-01T04:35:07;0.87;;;0.87;;
15383;SDS011;7790;53.022;12.968;2023-04-01T04:39:08;0.90;;;0.90;;
15383;SDS011;7790;53.022;12.968;2023-04-01T04:43:13;1.10;;;1.00;;
15383;SDS011;7790;53.022;12.968;2023-04-01T04:47:16;0.90;;;0.90;;
15383;SDS011;7790;53.022;12.968;2023-04-01T04:51:18;0.67;;;0.67;;
15383;SDS011;7790;53.022;12.968;2023-04-01T04:55:21;0.70;;;0.70;;
15383;SDS011;7790;53.022;12.968;2023-04-01T04:59:30;0.80;;;0.80;;
15383;SDS011;7790;53.022;12.968;2023-04-01T05:03:37;0.70;;;0.70;;
15383;SDS011;7790;53.022;12.968;2023-04-01T05:07:39;0.50;;;0.50;;
15383;SDS011;7790;53.022;12.968;2023-04-01T05:11:40;0.87;;;0.87;;
15383;SDS011;7790;53.022;12.968;2023-04-01T05:15:41;0.60;;;0.60;;
15383;SDS011;7790;53.022;12.968;2023-04-01T05:19:42;0.60;;;0.60;;
15383;SDS011;7790;53.022;12.968;2023-04-01T05:23:43;2.63;;;0.70;;
15383;SDS011;7790;53.022;12.968;2023-04-01T05:27:44;0.40;;;0.40;;
15383;SDS011;7790;53.022;12.968;2023-04-01T05:31:45;1.23;;;0.60;;
15383;SDS011;7790;53.022;12.968;2023-04-01T05:35:46;2.17;;;0.67;;
15383;SDS011;7790;53.022;12.968;2023-04-01T05:39:48;1.07;;;0.70;;
15383;SDS011;7790;53.022;12.968;2023-04-01T05:43:48;1.73;;;0.60;;
15383;SDS011;7790;53.022;12.968;2023-04-01T05:48:22;0.60;;;0.60;;
15383;SDS011;7790;53.022;12.968;2023-04-01T05:52:23;1.10;;;0.80;;
15383;SDS011;7790;53.022;12.968;2023-04-01T05:56:24;0.73;;;0.73;;
15383;SDS011;7790;53.022;12.968;2023-04-01T06:00:25;2.23;;;1.00;;
15383;SDS011;7790;53.022;12.968;2023-04-01T06:04:26;3.03;;;0.80;;
15383;SDS011;7790;53.022;12.968;2023-04-01T06:08:32;2.27;;;0.70;;
15383;SDS011;7790;53.022;12.968;2023-04-01T06:12:37;5.87;;;1.00;;
15383;SDS011;7790;53.022;12.968;2023-04-01T06:16:46;0.80;;;0.80;;
15383;SDS011;7790;53.022;12.968;2023-04-01T06:25:43;1.40;;;0.77;;
15383;SDS011;7790;53.022;12.968;2023-04-01T06:56:27;0.70;;;0.63;;
15383;SDS011;7790;53.022;12.968;2023-04-01T07:00:39;1.90;;;0.80;;
15383;SDS011;7790;53.022;12.968;2023-04-01T07:04:44;1.00;;;0.63;;
15383;SDS011;7790;53.022;12.968;2023-04-01T07:08:47;1.27;;;0.90;;
15383;SDS011;7790;53.022;12.968;2023-04-01T07:12:54;1.67;;;1.57;;
15383;SDS011;7790;53.022;12.968;2023-04-01T07:17:18;2.43;;;2.20;;
15383;SDS011;7790;53.022;12.968;2023-04-01T07:22:03;4.30;;;2.50;;
15383;SDS011;7790;53.022;12.968;2023-04-01T07:26:21;2.93;;;2.37;;
15383;SDS011;7790;53.022;12.968;2023-04-01T07:30:52;4.77;;;2.93;;
15383;SDS011;7790;53.022;12.968;2023-04-01T07:35:17;3.87;;;2.93;;
15383;SDS011;7790;53.022;12.968;2023-04-01T07:44:13;4.87;;;2.70;;
15383;SDS011;7790;53.022;12.968;2023-04-01T07:57:05;6.17;;;2.70;;
15383;SDS011;7790;53.022;12.968;2023-04-01T08:01:35;3.53;;;2.50;;
15383;SDS011;7790;53.022;12.968;2023-04-01T08:06:04;3.53;;;2.50;;
15383;SDS011;7790;53.022;12.968;2023-04-01T08:10:19;6.73;;;2.20;;
15383;SDS011;7790;53.022;12.968;2023-04-01T08:23:33;3.47;;;2.30;;
15383;SDS011;7790;53.022;12.968;2023-04-01T08:27:41;4.60;;;2.33;;
15383;SDS011;7790;53.022;12.968;2023-04-01T08:35:52;3.10;;;2.20;;
15383;SDS011;7790;53.022;12.968;2023-04-01T08:53:35;3.63;;;2.00;;
15383;SDS011;7790;53.022;12.968;2023-04-01T09:11:30;4.03;;;1.70;;
15383;SDS011;7790;53.022;12.968;2023-04-01T09:16:04;4.80;;;1.80;;
15383;SDS011;7790;53.022;12.968;2023-04-01T09:25:22;2.93;;;1.30;;
15383;SDS011;7790;53.022;12.968;2023-04-01T09:29:56;3.00;;;1.50;;
15383;SDS011;7790;53.022;12.968;2023-04-01T09:39:16;3.10;;;1.43;;
15383;SDS011;7790;53.022;12.968;2023-04-01T09:43:30;2.47;;;1.43;;
15383;SDS011;7790;53.022;12.968;2023-04-01T10:23:20;9.37;;;1.50;;
15383;SDS011;7790;53.022;12.968;2023-04-01T11:04:26;1.40;;;1.17;;
15383;SDS011;7790;53.022;12.968;2023-04-01T11:22:47;1.63;;;0.97;;
15383;SDS011;7790;53.022;12.968;2023-04-01T11:49:41;1.40;;;0.90;;
15383;SDS011;7790;53.022;12.968;2023-04-01T11:58:31;1.00;;;0.70;;
15383;SDS011;7790;53.022;12.968;2023-04-01T12:11:27;1.93;;;1.00;;
15383;SDS011;7790;53.022;12.968;2023-04-01T12:19:54;1.90;;;1.00;;
15383;SDS011;7790;53.022;12.968;2023-04-01T12:32:30;1.37;;;0.83;;
15383;SDS011;7790;53.022;12.968;2023-04-01T12:41:06;0.93;;;0.93;;
15383;SDS011;7790;53.022;12.968;2023-04-01T12:53:53;1.53;;;0.90;;
15383;SDS011;7790;53.022;12.968;2023-04-01T13:03:06;0.70;;;0.70;;
15383;SDS011;7790;53.022;12.968;2023-04-01T13:11:52;1.17;;;0.90;;
15383;SDS011;7790;53.022;12.968;2023-04-01T13:16:23;1.13;;;0.60;;
15383;SDS011;7790;53.022;12.968;2023-04-01T13:24:51;0.70;;;0.70;;
15383;SDS011;7790;53.022;12.968;2023-04-01T13:59:35;0.57;;;0.57;;
15383;SDS011;7790;53.022;12.968;2023-04-01T14:21:55;0.73;;;0.60;;
15383;SDS011;7790;53.022;12.968;2023-04-01T14:26:29;0.77;;;0.70;;
15383;SDS011;7790;53.022;12.968;2023-04-01T14:30:57;0.70;;;0.70;;
15383;SDS011;7790;53.022;12.968;2023-04-01T14:44:13;0.60;;;0.60;;
15383;SDS011;7790;53.022;12.968;2023-04-01T14:48:37;0.50;;;0.50;;
15383;SDS011;7790;53.022;12.968;2023-04-01T14:57:22;0.40;;;0.40;;
15383;SDS011;7790;53.022;12.968;2023-04-01T15:01:30;1.03;;;0.90;;
15383;SDS011;7790;53.022;12.968;2023-04-01T15:10:00;0.67;;;0.67;;
15383;SDS011;7790;53.022;12.968;2023-04-01T15:35:36;0.70;;;0.70;;
15383;SDS011;7790;53.022;12.968;2023-04-01T15:43:57;0.43;;;0.43;;
15383;SDS011;7790;53.022;12.968;2023-04-01T16:05:30;0.77;;;0.53;;
15383;SDS011;7790;53.022;12.968;2023-04-01T16:22:46;0.83;;;0.37;;
15383;SDS011;7790;53.022;12.968;2023-04-01T16:31:09;0.30;;;0.30;;
15383;SDS011;7790;53.022;12.968;2023-04-01T16:48:24;0.53;;;0.50;;
15383;SDS011;7790;53.022;12.968;2023-04-01T16:53:08;0.97;;;0.80;;
15383;SDS011;7790;53.022;12.968;2023-04-01T16:57:19;0.50;;;0.50;;
15383;SDS011;7790;53.022;12.968;2023-04-01T17:06:02;0.57;;;0.53;;
15383;SDS011;7790;53.022;12.968;2023-04-01T17:10:25;1.03;;;0.70;;
15383;SDS011;7790;53.022;12.968;2023-04-01T17:14:30;5.57;;;1.05;;
15383;SDS011;7790;53.022;12.968;2023-04-01T17:44:25;1.20;;;0.73;;
15383;SDS011;7790;53.022;12.968;2023-04-01T18:10:32;0.80;;;0.80;;
15383;SDS011;7790;53.022;12.968;2023-04-01T18:15:04;6.80;;;1.10;;
15383;SDS011;7790;53.022;12.968;2023-04-01T18:23:27;1.00;;;0.90;;
15383;SDS011;7790;53.022;12.968;2023-04-01T18:27:48;0.83;;;0.70;;
15383;SDS011;7790;53.022;12.968;2023-04-01T18:32:36;1.33;;;0.80;;
15383;SDS011;7790;53.022;12.968;2023-04-01T18:36:44;1.17;;;0.80;;
15383;SDS011;7790;53.022;12.968;2023-04-01T19:02:24;1.50;;;1.07;;
15383;SDS011;7790;53.022;12.968;2023-04-01T19:06:35;2.10;;;1.07;;
15383;SDS011;7790;53.022;12.968;2023-04-01T19:32:45;114.83;;;97.33;;
15383;SDS011;7790;53.022;12.968;2023-04-01T19:36:56;92.97;;;83.37;;
15383;SDS011;7790;53.022;12.968;2023-04-01T19:54:12;85.13;;;76.80;;
15383;SDS011;7790;53.022;12.968;2023-04-01T20:02:50;70.50;;;63.30;;
15383;SDS011;7790;53.022;12.968;2023-04-01T20:11:18;49.53;;;35.20;;
15383;SDS011;7790;53.022;12.968;2023-04-01T20:19:40;52.00;;;46.80;;
15383;SDS011;7790;53.022;12.968;2023-04-01T20:23:50;50.27;;;43.20;;
15383;SDS011;7790;53.022;12.968;2023-04-01T20:41:25;39.07;;;34.60;;
15383;SDS011;7790;53.022;12.968;2023-04-01T20:45:37;40.23;;;33.43;;
15383;SDS011;7790;53.022;12.968;2023-04-01T20:49:54;35.27;;;31.60;;
15383;SDS011;7790;53.022;12.968;2023-04-01T21:07:11;25.73;;;23.03;;
15383;SDS011;7790;53.022;12.968;2023-04-01T21:11:19;24.30;;;21.67;;
15383;SDS011;7790;53.022;12.968;2023-04-01T21:15:38;23.10;;;20.60;;
15383;SDS011;7790;53.022;12.968;2023-04-01T21:41:07;17.10;;;14.30;;
15383;SDS011;7790;53.022;12.968;2023-04-01T22:07:34;11.63;;;10.33;;
15383;SDS011;7790;53.022;12.968;2023-04-01T22:11:42;11.60;;;9.87;;
15383;SDS011;7790;53.022;12.968;2023-04-01T22:16:03;9.43;;;8.50;;
15383;SDS011;7790;53.022;12.968;2023-04-01T22:24:30;8.97;;;8.10;;
15383;SDS011;7790;53.022;12.968;2023-04-01T22:37:29;7.73;;;6.90;;
15383;SDS011;7790;53.022;12.968;2023-04-01T22:54:56;7.20;;;6.53;;
15383;SDS011;7790;53.022;12.968;2023-04-01T22:59:41;7.87;;;6.07;;
15383;SDS011;7790;53.022;12.968;2023-04-01T23:03:51;6.03;;;5.43;;
15383;SDS011;7790;53.022;12.968;2023-04-01T23:12:12;5.33;;;4.83;;
15383;SDS011;7790;53.022;12.968;2023-04-01T23:16:15;6.10;;;5.20;;
15383;SDS011;7790;53.022;12.968;2023-04-01T23:24:56;5.50;;;4.40;;
15383;SDS011;7790;53.022;12.968;2023-04-01T23:29:11;6.10;;;4.20;;
15383;SDS011;7790;53.022;12.968;2023-04-01T23:37:20;4.33;;;4.03;;
15383;SDS011;7790;53.022;12.968;2023-04-01T23:41:29;4.10;;;3.80;;
15383;SDS011;7790;53.022;12.968;2023-04-01T23:45:31;4.00;;;3.40;;
15383;SDS011;7790;53.022;12.968;2023-04-01T23:49:34;6.57;;;4.30;;
15383;SDS011;7790;53.022;12.968;2023-04-01T23:53:41;4.30;;;3.90;;
